Time;durP1;ratioP1;P1;durP2;ratioP2;P2;SDS_P1;SDS_P2;PMS_P1;PMS_P2;Temp;Humidity;BMP_temperature;BMP_pressure;BME280_temperature;BME280_humidity;BME280_pressure;Samples;Min_cycle;Max_cycle;Signal;HPM_P1;HPM_P2
2022/01/16 00:00:52;;;;;;;13.80;9.67;;;15.20;55.60;;;;;;4994210;28;20565;-85
2022/01/16 00:06:12;;;;;;;16.23;10.57;;;15.20;55.60;;;;;;4994657;28;20443;-85
2022/01/16 00:08:40;;;;;;;15.27;10.67;;;15.20;55.70;;;;;;4995826;28;20437;-85
2022/01/16 00:11:08;;;;;;;15.00;10.00;;;15.10;55.50;;;;;;4994551;28;20858;-85
2022/01/16 00:13:36;;;;;;;17.30;10.90;;;15.10;55.60;;;;;;4995726;28;20518;-85
2022/01/16 00:16:04;;;;;;;16.03;10.60;;;15.10;55.60;;;;;;4990666;28;20552;-84
2022/01/16 00:18:42;;;;;;;14.30;10.47;;;15.20;55.60;;;;;;4997904;28;20500;-85
2022/01/16 00:21:11;;;;;;;16.57;10.03;;;15.10;55.70;;;;;;4996885;28;20564;-85
2022/01/16 00:23:40;;;;;;;14.57;10.00;;;15.10;55.60;;;;;;4996106;28;20445;-85
2022/01/16 00:26:08;;;;;;;21.20;10.40;;;15.10;55.70;;;;;;4995144;28;20476;-85
2022/01/16 00:28:36;;;;;;;15.40;11.00;;;15.20;55.70;;;;;;4993879;28;20520;-85
2022/01/16 00:31:10;;;;;;;15.90;10.30;;;15.20;55.70;;;;;;4984172;28;20488;-85
2022/01/16 00:33:39;;;;;;;14.20;10.03;;;15.20;55.60;;;;;;4986779;28;20438;-85
2022/01/16 00:36:07;;;;;;;14.40;9.70;;;15.20;55.60;;;;;;4994566;28;20955;-85
2022/01/16 00:38:38;;;;;;;14.57;9.80;;;15.20;55.60;;;;;;4996061;28;20476;-84
2022/01/16 00:41:07;;;;;;;13.87;9.50;;;15.20;55.60;;;;;;4994980;28;20556;-85
2022/01/16 00:43:35;;;;;;;14.63;10.60;;;15.20;55.60;;;;;;4994298;28;20481;-85
2022/01/16 00:46:03;;;;;;;17.37;10.67;;;15.20;55.70;;;;;;4995107;28;20457;-84
2022/01/16 00:48:32;;;;;;;15.10;10.40;;;15.20;55.60;;;;;;4994453;28;20434;-84
2022/01/16 00:51:00;;;;;;;14.97;10.73;;;15.20;55.50;;;;;;4997841;28;20552;-84
2022/01/16 00:53:28;;;;;;;14.77;9.73;;;15.20;55.70;;;;;;4993823;28;20536;-84
2022/01/16 00:55:57;;;;;;;13.40;10.00;;;15.20;55.50;;;;;;4993679;28;20540;-84
2022/01/16 00:58:25;;;;;;;14.83;10.50;;;15.20;55.40;;;;;;4993811;28;20527;-84
2022/01/16 01:00:53;;;;;;;15.00;10.27;;;15.20;55.60;;;;;;4998655;28;20500;-84
2022/01/16 01:03:22;;;;;;;15.57;10.10;;;15.20;55.50;;;;;;5001867;28;20472;-83
2022/01/16 01:05:50;;;;;;;15.43;10.73;;;15.20;55.40;;;;;;4993150;28;20468;-82
2022/01/16 01:08:19;;;;;;;16.43;9.80;;;15.20;55.50;;;;;;4982818;28;20456;-83
2022/01/16 01:10:50;;;;;;;14.70;9.77;;;15.10;55.40;;;;;;4984640;28;20484;-83
2022/01/16 01:13:23;;;;;;;15.00;9.80;;;15.10;55.50;;;;;;4985815;28;20450;-83
2022/01/16 01:15:58;;;;;;;15.30;9.83;;;15.10;55.60;;;;;;4984901;28;20464;-84
2022/01/16 01:18:27;;;;;;;15.47;9.93;;;15.10;55.50;;;;;;4984524;28;20541;-83
2022/01/16 01:20:57;;;;;;;14.83;10.10;;;15.10;55.50;;;;;;4983978;28;20493;-82
2022/01/16 01:23:26;;;;;;;16.13;10.27;;;15.20;55.60;;;;;;4983637;28;20426;-83
2022/01/16 01:25:53;;;;;;;17.10;11.60;;;15.20;55.50;;;;;;4982899;28;20441;-81
2022/01/16 01:28:22;;;;;;;14.63;9.83;;;15.10;55.40;;;;;;4980894;28;20457;-80
2022/01/16 01:30:50;;;;;;;17.63;10.43;;;15.10;55.50;;;;;;4975693;28;20513;-80
2022/01/16 01:33:20;;;;;;;15.27;10.53;;;15.20;55.60;;;;;;4981273;28;20525;-81
2022/01/16 01:35:48;;;;;;;15.73;10.90;;;15.20;56.10;;;;;;4980889;28;20545;-80
2022/01/16 01:38:18;;;;;;;15.30;10.00;;;15.10;55.40;;;;;;4980628;28;20442;-80
2022/01/16 01:40:47;;;;;;;16.47;10.67;;;15.20;55.60;;;;;;4988576;28;20504;-81
2022/01/16 01:51:36;;;;;;;17.00;11.03;;;15.10;55.70;;;;;;4999462;28;20465;-80
2022/01/16 01:54:05;;;;;;;12.80;8.60;;;15.10;55.80;;;;;;5000016;28;20465;-80
2022/01/16 01:56:33;;;;;;;14.10;9.57;;;15.10;55.70;;;;;;4999228;28;20447;-80
2022/01/16 01:59:01;;;;;;;14.50;8.77;;;15.10;55.80;;;;;;4997575;28;21032;-80
2022/01/16 02:01:31;;;;;;;15.00;9.30;;;15.10;55.80;;;;;;4999196;28;20470;-80
2022/01/16 02:03:59;;;;;;;14.47;10.10;;;15.10;56.00;;;;;;4999538;28;20461;-80
2022/01/16 02:06:28;;;;;;;14.03;9.63;;;15.10;55.90;;;;;;4999140;28;20432;-80
2022/01/16 02:08:58;;;;;;;15.40;9.80;;;15.10;56.00;;;;;;4999869;28;20533;-80
2022/01/16 02:11:31;;;;;;;14.17;9.60;;;15.10;55.90;;;;;;5001482;28;20484;-80
2022/01/16 02:14:05;;;;;;;14.73;8.93;;;15.10;55.90;;;;;;5000725;28;20524;-80
2022/01/16 02:28:04;;;;;;;14.27;9.47;;;15.00;56.10;;;;;;4998911;28;20472;-81
2022/01/16 02:30:59;;;;;;;13.10;9.40;;;15.00;56.20;;;;;;4998751;28;20489;-81
2022/01/16 02:36:26;;;;;;;16.50;9.67;;;15.00;56.30;;;;;;4998444;28;20505;-81
2022/01/16 02:38:59;;;;;;;15.27;9.37;;;15.00;56.30;;;;;;4998663;28;20432;-81
2022/01/16 02:41:27;;;;;;;15.90;9.70;;;15.00;56.30;;;;;;4998768;28;20468;-81
2022/01/16 02:43:57;;;;;;;11.57;8.70;;;15.00;56.40;;;;;;4998556;28;20547;-81
2022/01/16 02:46:37;;;;;;;11.60;8.50;;;15.00;56.50;;;;;;4998481;28;20485;-81
2022/01/16 02:49:18;;;;;;;12.53;9.00;;;15.00;56.40;;;;;;4998719;28;20516;-81
2022/01/16 02:51:46;;;;;;;12.23;8.63;;;15.00;56.40;;;;;;4998324;28;20533;-81
2022/01/16 02:54:15;;;;;;;12.10;8.20;;;15.00;56.50;;;;;;4996999;28;20485;-81
2022/01/16 02:56:45;;;;;;;13.70;9.03;;;15.00;56.40;;;;;;4998040;28;20472;-81
2022/01/16 02:59:13;;;;;;;13.07;9.37;;;15.00;56.40;;;;;;4998475;28;20480;-81
2022/01/16 03:01:46;;;;;;;14.37;9.67;;;15.00;56.40;;;;;;4998030;28;20544;-81
2022/01/16 03:04:14;;;;;;;11.93;8.73;;;15.00;56.40;;;;;;4998278;28;20436;-81
2022/01/16 03:06:42;;;;;;;14.97;9.27;;;14.90;56.30;;;;;;4997953;28;20491;-81
2022/01/16 03:09:10;;;;;;;15.63;9.93;;;14.90;56.40;;;;;;4998144;28;20536;-81
2022/01/16 03:11:45;;;;;;;14.13;8.80;;;14.90;56.40;;;;;;4996236;28;20483;-81
2022/01/16 03:14:15;;;;;;;16.90;10.03;;;14.90;56.30;;;;;;4998374;28;20524;-81
2022/01/16 03:16:45;;;;;;;13.00;8.80;;;14.90;56.50;;;;;;4998212;28;20561;-81
2022/01/16 03:22:02;;;;;;;16.00;9.77;;;14.90;56.20;;;;;;4998402;28;20508;-81
2022/01/16 03:24:33;;;;;;;14.40;9.77;;;14.90;56.40;;;;;;4990157;28;20544;-81
2022/01/16 03:27:04;;;;;;;14.50;9.93;;;14.80;56.50;;;;;;5013406;28;20554;-80
2022/01/16 03:29:31;;;;;;;14.30;9.43;;;14.90;56.60;;;;;;4996512;28;20468;-81
2022/01/16 03:32:01;;;;;;;17.73;10.73;;;14.80;56.50;;;;;;4997711;28;20607;-81
2022/01/16 03:34:29;;;;;;;15.80;10.23;;;14.80;56.60;;;;;;5001816;28;20509;-81
2022/01/16 03:36:57;;;;;;;13.67;9.87;;;14.80;56.80;;;;;;4997091;28;20456;-81
2022/01/16 03:39:25;;;;;;;13.53;9.57;;;14.80;56.60;;;;;;4997510;28;20485;-81
2022/01/16 03:41:55;;;;;;;15.37;9.97;;;14.90;56.70;;;;;;4997857;28;20429;-81
2022/01/16 03:44:24;;;;;;;15.50;10.17;;;14.80;56.60;;;;;;4990506;28;20541;-81
2022/01/16 03:46:52;;;;;;;18.03;10.57;;;14.80;56.60;;;;;;4985784;28;20470;-81
2022/01/16 03:49:21;;;;;;;19.90;10.87;;;14.80;56.70;;;;;;5013814;28;20448;-81
2022/01/16 03:51:50;;;;;;;15.07;10.53;;;14.80;56.70;;;;;;5017351;28;20472;-81
2022/01/16 03:54:20;;;;;;;13.57;9.73;;;14.80;56.70;;;;;;5017019;28;20460;-81
2022/01/16 03:56:48;;;;;;;15.10;9.33;;;14.80;56.80;;;;;;5017302;28;20452;-81
2022/01/16 03:59:16;;;;;;;14.70;10.10;;;14.90;56.90;;;;;;5017547;28;20519;-81
2022/01/16 04:01:45;;;;;;;12.50;9.00;;;14.80;56.70;;;;;;4995889;28;20569;-81
2022/01/16 04:04:13;;;;;;;14.63;9.27;;;14.80;56.80;;;;;;4997814;28;20441;-81
2022/01/16 04:06:41;;;;;;;17.50;9.70;;;14.80;56.80;;;;;;4997791;28;20967;-81
2022/01/16 04:09:09;;;;;;;15.07;9.63;;;14.80;56.90;;;;;;4996926;28;20532;-81
2022/01/16 04:11:42;;;;;;;13.83;9.13;;;14.80;56.70;;;;;;4996842;28;20559;-81
2022/01/16 04:14:21;;;;;;;17.17;9.83;;;14.80;56.80;;;;;;4997761;28;20498;-81
2022/01/16 04:16:52;;;;;;;14.40;9.40;;;14.80;56.80;;;;;;4997636;28;20517;-81
2022/01/16 04:19:21;;;;;;;15.73;9.43;;;14.80;56.90;;;;;;4996743;28;20453;-81
2022/01/16 04:21:49;;;;;;;15.70;9.90;;;14.80;57.00;;;;;;4997846;28;20465;-81
2022/01/16 04:24:17;;;;;;;13.33;8.63;;;14.70;56.90;;;;;;4997452;28;20451;-81
2022/01/16 04:26:44;;;;;;;13.20;8.30;;;14.80;56.90;;;;;;4997363;28;20473;-82
2022/01/16 04:29:12;;;;;;;15.17;9.77;;;14.70;56.90;;;;;;4997117;28;20464;-81
2022/01/16 04:31:40;;;;;;;15.37;9.93;;;14.70;56.90;;;;;;4997158;28;20551;-81
2022/01/16 04:34:09;;;;;;;16.10;9.70;;;14.70;57.00;;;;;;4997330;28;20544;-81
2022/01/16 04:36:47;;;;;;;21.47;10.50;;;14.80;57.00;;;;;;4996984;28;20460;-81
2022/01/16 04:39:18;;;;;;;14.73;10.27;;;14.70;56.90;;;;;;5001300;28;20436;-81
2022/01/16 04:44:32;;;;;;;16.67;10.13;;;14.70;57.00;;;;;;5000828;28;20531;-81
2022/01/16 04:47:00;;;;;;;17.20;10.20;;;14.60;57.50;;;;;;5001027;28;20529;-81
2022/01/16 04:49:29;;;;;;;17.40;10.70;;;14.60;57.00;;;;;;5001187;28;20559;-81
2022/01/16 04:51:57;;;;;;;15.93;10.53;;;14.70;57.20;;;;;;5000875;28;20561;-81
2022/01/16 04:54:25;;;;;;;18.40;10.60;;;14.60;57.10;;;;;;4982003;28;20509;-81
2022/01/16 04:56:53;;;;;;;18.80;10.93;;;14.60;57.10;;;;;;4981383;28;20445;-81
2022/01/16 04:59:21;;;;;;;17.87;11.00;;;14.70;57.20;;;;;;4981479;28;20533;-81
2022/01/16 05:01:49;;;;;;;16.30;9.50;;;14.60;57.00;;;;;;4993517;28;20532;-81
2022/01/16 05:04:18;;;;;;;18.07;10.67;;;14.60;57.00;;;;;;5000787;28;20467;-81
2022/01/16 05:06:47;;;;;;;20.37;11.47;;;14.60;56.90;;;;;;5007858;28;20468;-81
2022/01/16 05:09:15;;;;;;;19.33;10.87;;;14.60;57.10;;;;;;5003485;28;20485;-81
2022/01/16 05:11:44;;;;;;;18.87;11.07;;;14.60;57.10;;;;;;4981035;28;20553;-81
2022/01/16 05:16:58;;;;;;;21.10;11.80;;;14.70;57.00;;;;;;4980346;28;20430;-80
2022/01/16 05:19:26;;;;;;;20.60;11.40;;;14.60;57.00;;;;;;4980521;28;20458;-81
2022/01/16 05:21:55;;;;;;;20.03;11.20;;;14.70;57.10;;;;;;4981488;28;20505;-81
2022/01/16 05:24:28;;;;;;;20.77;11.73;;;14.60;56.90;;;;;;4981360;28;20528;-81
2022/01/16 05:26:55;;;;;;;22.70;12.27;;;14.60;57.00;;;;;;4994316;28;20476;-81
2022/01/16 05:29:26;;;;;;;18.60;10.97;;;14.60;57.00;;;;;;5000148;28;20500;-81
2022/01/16 05:31:53;;;;;;;20.37;11.33;;;14.60;56.90;;;;;;5000017;28;20500;-81
2022/01/16 05:34:25;;;;;;;21.90;12.47;;;14.60;57.00;;;;;;5000312;28;20440;-81
2022/01/16 05:36:54;;;;;;;20.87;12.20;;;14.60;57.10;;;;;;5000336;28;20456;-81
2022/01/16 05:39:22;;;;;;;19.73;11.60;;;14.60;57.10;;;;;;5000179;28;20471;-81
2022/01/16 05:41:50;;;;;;;22.77;12.50;;;14.60;57.00;;;;;;5000401;28;20540;-80
2022/01/16 05:44:18;;;;;;;23.50;13.40;;;14.60;57.00;;;;;;5000537;28;20441;-81
2022/01/16 05:46:47;;;;;;;21.97;12.27;;;14.60;57.00;;;;;;4999725;28;20537;-80
2022/01/16 05:49:15;;;;;;;19.70;11.30;;;14.60;57.00;;;;;;4998891;28;21002;-81
2022/01/16 05:51:43;;;;;;;23.53;13.07;;;14.60;56.90;;;;;;5000237;28;20559;-81
2022/01/16 05:54:13;;;;;;;25.37;14.00;;;14.60;57.00;;;;;;4999961;28;20517;-81
2022/01/16 05:56:41;;;;;;;27.10;14.00;;;14.60;56.80;;;;;;4999970;28;20468;-81
2022/01/16 05:59:09;;;;;;;26.17;14.60;;;14.60;56.90;;;;;;4993799;28;20549;-81
2022/01/16 06:01:43;;;;;;;23.53;12.73;;;14.60;56.90;;;;;;4999714;28;20476;-81
2022/01/16 06:04:11;;;;;;;26.17;13.90;;;14.60;56.80;;;;;;4999298;28;20437;-81
2022/01/16 06:06:39;;;;;;;25.43;14.00;;;14.60;56.90;;;;;;5000053;28;20469;-81
2022/01/16 06:09:07;;;;;;;24.47;13.83;;;14.60;57.00;;;;;;4999124;28;20469;-81
2022/01/16 06:11:36;;;;;;;22.40;13.30;;;14.60;56.90;;;;;;4999980;28;20447;-81
2022/01/16 06:14:04;;;;;;;26.17;13.77;;;14.60;56.90;;;;;;4999395;28;20536;-81
2022/01/16 06:16:33;;;;;;;25.93;13.90;;;14.60;56.80;;;;;;4997016;28;20548;-81
2022/01/16 06:19:01;;;;;;;26.30;13.77;;;14.60;56.90;;;;;;5000200;28;20469;-81
2022/01/16 06:21:30;;;;;;;23.60;13.30;;;14.60;56.70;;;;;;4999201;28;20539;-81
2022/01/16 06:23:58;;;;;;;26.37;14.23;;;14.60;56.80;;;;;;4999176;28;20461;-81
2022/01/16 06:26:26;;;;;;;26.37;13.83;;;14.50;56.80;;;;;;4999029;28;20441;-81
2022/01/16 06:28:55;;;;;;;27.30;13.80;;;14.50;56.90;;;;;;4999120;28;20584;-81
2022/01/16 06:31:24;;;;;;;26.37;13.73;;;14.60;56.80;;;;;;4998878;28;20552;-81
2022/01/16 06:33:51;;;;;;;25.07;13.40;;;14.50;56.80;;;;;;4998442;28;20481;-81
2022/01/16 06:36:20;;;;;;;25.77;13.90;;;14.60;56.80;;;;;;4998699;28;20461;-82
2022/01/16 06:38:48;;;;;;;26.13;14.23;;;14.60;56.90;;;;;;4999033;28;20517;-81
2022/01/16 06:41:16;;;;;;;28.80;14.80;;;14.60;57.00;;;;;;4998946;28;20501;-79
2022/01/16 06:43:44;;;;;;;26.53;14.63;;;14.60;56.80;;;;;;4999443;28;20456;-80
2022/01/16 06:46:13;;;;;;;28.90;14.37;;;14.60;56.80;;;;;;4998480;28;20915;-80
2022/01/16 06:48:42;;;;;;;29.47;15.47;;;14.60;56.80;;;;;;4998345;28;20512;-80
2022/01/16 06:51:09;;;;;;;26.50;14.23;;;14.50;57.00;;;;;;4992932;28;20477;-80
2022/01/16 06:53:38;;;;;;;30.13;15.20;;;14.60;56.90;;;;;;5001274;28;20559;-80
2022/01/16 06:56:05;;;;;;;27.47;14.33;;;14.60;57.00;;;;;;5000966;28;20484;-80
2022/01/16 06:58:34;;;;;;;32.60;16.03;;;14.60;56.80;;;;;;4998789;28;20498;-80
2022/01/16 07:01:01;;;;;;;30.70;15.27;;;14.50;56.80;;;;;;4997653;28;20460;-80
2022/01/16 07:03:31;;;;;;;27.93;15.57;;;14.60;56.70;;;;;;4998678;28;20456;-80
2022/01/16 07:06:00;;;;;;;31.93;16.20;;;14.50;56.80;;;;;;4998342;28;20472;-80
2022/01/16 07:08:28;;;;;;;33.33;15.60;;;14.50;56.70;;;;;;4979032;28;20525;-80
2022/01/16 07:10:56;;;;;;;28.77;15.43;;;14.50;56.60;;;;;;4979114;28;20523;-80
2022/01/16 07:13:24;;;;;;;27.60;15.33;;;14.50;56.70;;;;;;4978494;28;20988;-80
2022/01/16 07:15:52;;;;;;;27.27;14.57;;;14.60;56.90;;;;;;4978901;28;20506;-80
2022/01/16 07:18:20;;;;;;;26.20;14.60;;;14.50;56.70;;;;;;4979338;28;20442;-80
2022/01/16 07:20:49;;;;;;;28.73;15.43;;;14.50;56.70;;;;;;4979692;28;20553;-80
2022/01/16 07:23:19;;;;;;;25.97;14.20;;;14.50;56.90;;;;;;4984260;28;20457;-80
2022/01/16 07:25:47;;;;;;;28.57;14.77;;;14.50;56.70;;;;;;4998074;28;20464;-80
2022/01/16 07:28:15;;;;;;;28.10;14.70;;;14.50;56.80;;;;;;4998593;28;20469;-80
2022/01/16 07:30:43;;;;;;;32.37;16.03;;;14.50;57.40;;;;;;4997644;28;20615;-80
2022/01/16 07:33:11;;;;;;;28.80;14.70;;;14.50;56.80;;;;;;4998116;28;20536;-80
2022/01/16 07:35:40;;;;;;;29.43;15.80;;;14.50;56.90;;;;;;4997476;28;20517;-80
2022/01/16 07:38:09;;;;;;;29.40;16.53;;;14.50;56.90;;;;;;4998031;28;20528;-80
2022/01/16 07:40:37;;;;;;;30.83;16.17;;;14.60;57.00;;;;;;4997264;28;20559;-80
2022/01/16 07:43:21;;;;;;;26.20;14.97;;;14.60;56.80;;;;;;4997851;28;20513;-80
2022/01/16 07:45:49;;;;;;;27.87;15.43;;;14.60;57.30;;;;;;4997310;28;20429;-80
2022/01/16 07:48:17;;;;;;;31.80;15.93;;;14.60;56.80;;;;;;4997514;28;20484;-80
2022/01/16 07:50:45;;;;;;;31.13;15.20;;;14.60;57.00;;;;;;4997264;28;20540;-80
2022/01/16 07:53:15;;;;;;;29.43;15.17;;;14.60;56.90;;;;;;4997663;28;20493;-80
2022/01/16 07:55:43;;;;;;;26.03;15.30;;;14.50;56.80;;;;;;4997139;28;20525;-80
2022/01/16 07:58:11;;;;;;;32.47;16.30;;;14.50;56.90;;;;;;4996338;28;20460;-80
2022/01/16 08:00:38;;;;;;;30.10;15.67;;;14.50;56.80;;;;;;4978185;28;20489;-80
2022/01/16 08:03:07;;;;;;;32.80;16.47;;;14.50;56.90;;;;;;4978386;28;20434;-80
2022/01/16 08:05:35;;;;;;;30.97;16.70;;;14.60;57.00;;;;;;4977537;28;20449;-80
2022/01/16 08:08:04;;;;;;;31.23;17.30;;;14.60;56.80;;;;;;4977778;28;20481;-80
2022/01/16 08:10:34;;;;;;;32.90;16.87;;;14.60;56.70;;;;;;4978403;28;20541;-80
2022/01/16 08:13:02;;;;;;;31.20;17.50;;;14.60;56.90;;;;;;4977085;28;20509;-80
2022/01/16 08:15:33;;;;;;;33.13;16.87;;;14.60;56.70;;;;;;4977873;28;20537;-80
2022/01/16 08:18:01;;;;;;;35.90;17.10;;;14.60;56.60;;;;;;4997255;28;20422;-80
2022/01/16 08:20:29;;;;;;;35.30;18.20;;;14.60;56.70;;;;;;4997223;28;20477;-81
2022/01/16 08:22:57;;;;;;;35.10;16.83;;;14.60;56.70;;;;;;4996999;28;20433;-81
2022/01/16 08:25:25;;;;;;;35.97;17.50;;;14.60;56.60;;;;;;4997463;28;20528;-81
2022/01/16 08:27:55;;;;;;;32.80;17.10;;;14.50;56.60;;;;;;4996959;28;20518;-81
2022/01/16 08:30:23;;;;;;;33.60;16.63;;;14.60;56.70;;;;;;4997377;28;20491;-81
2022/01/16 08:32:52;;;;;;;36.13;17.70;;;14.60;56.80;;;;;;4995616;28;20952;-81
2022/01/16 08:35:20;;;;;;;33.97;17.17;;;14.60;56.80;;;;;;4994089;28;20495;-81
2022/01/16 08:37:48;;;;;;;32.50;16.70;;;14.60;56.80;;;;;;4997273;28;20444;-81
2022/01/16 08:40:17;;;;;;;33.47;16.77;;;14.60;56.80;;;;;;4996870;28;20493;-81
2022/01/16 08:42:44;;;;;;;33.37;17.27;;;14.60;56.80;;;;;;4998694;28;20477;-80
2022/01/16 08:45:14;;;;;;;34.30;17.40;;;14.60;56.90;;;;;;4996890;28;20505;-81
2022/01/16 08:47:42;;;;;;;34.27;17.40;;;14.60;56.80;;;;;;4997211;28;20540;-81
2022/01/16 08:50:10;;;;;;;30.17;16.27;;;14.60;56.80;;;;;;4996588;28;20557;-80
2022/01/16 08:52:45;;;;;;;29.30;15.80;;;14.60;56.70;;;;;;4996827;28;20532;-81
2022/01/16 08:55:13;;;;;;;33.93;16.93;;;14.60;56.80;;;;;;4996878;28;20481;-81
2022/01/16 08:57:41;;;;;;;32.70;16.43;;;14.60;56.90;;;;;;4997723;28;20425;-83
2022/01/16 09:00:10;;;;;;;30.00;16.20;;;14.60;56.90;;;;;;4998590;28;20462;-83
2022/01/16 09:02:39;;;;;;;31.87;16.87;;;14.60;56.80;;;;;;4998281;28;20441;-83
2022/01/16 09:05:08;;;;;;;31.10;15.87;;;14.60;56.90;;;;;;4995955;28;20460;-83
2022/01/16 09:07:36;;;;;;;28.90;15.63;;;14.60;57.00;;;;;;4997771;28;20532;-82
2022/01/16 09:10:05;;;;;;;29.10;15.53;;;14.60;56.80;;;;;;4996888;28;20564;-82
2022/01/16 09:12:34;;;;;;;29.43;15.60;;;14.60;57.30;;;;;;4997180;28;20468;-82
2022/01/16 09:15:02;;;;;;;30.10;15.80;;;14.60;56.90;;;;;;4997291;28;20501;-82
2022/01/16 09:17:30;;;;;;;30.90;16.67;;;14.60;57.40;;;;;;4997650;28;20533;-81
2022/01/16 09:19:59;;;;;;;32.70;15.90;;;14.70;57.10;;;;;;4997239;28;20528;-82
2022/01/16 09:22:27;;;;;;;33.07;15.73;;;14.60;56.80;;;;;;4997907;28;20449;-82
2022/01/16 09:24:55;;;;;;;34.17;16.30;;;14.70;57.00;;;;;;4999968;28;20491;-82
2022/01/16 09:27:23;;;;;;;30.10;16.27;;;14.60;56.90;;;;;;4990707;28;20462;-81
2022/01/16 09:29:51;;;;;;;31.87;16.03;;;14.60;57.00;;;;;;4986412;28;20497;-81
2022/01/16 09:32:19;;;;;;;32.80;16.37;;;14.60;57.00;;;;;;5000814;28;20536;-81
2022/01/16 09:34:47;;;;;;;33.83;15.77;;;14.70;56.90;;;;;;5001027;28;20507;-80
2022/01/16 09:37:17;;;;;;;34.57;16.07;;;14.70;56.90;;;;;;5000115;28;20445;-82
2022/01/16 09:39:45;;;;;;;27.70;14.57;;;14.70;57.00;;;;;;5001052;28;20471;-81
2022/01/16 09:42:14;;;;;;;33.13;16.50;;;14.70;57.00;;;;;;5003116;28;20436;-82
2022/01/16 09:44:41;;;;;;;31.00;15.20;;;14.70;57.00;;;;;;5002580;28;20430;-81
2022/01/16 09:47:10;;;;;;;32.50;16.47;;;14.70;56.90;;;;;;5011105;28;20437;-81
2022/01/16 09:49:39;;;;;;;32.37;16.47;;;14.70;57.00;;;;;;5013983;28;20497;-81
2022/01/16 09:52:08;;;;;;;27.83;15.50;;;14.70;56.90;;;;;;5013670;28;20452;-82
2022/01/16 09:54:38;;;;;;;31.20;15.93;;;14.70;57.10;;;;;;5014531;28;20490;-82
2022/01/16 09:57:06;;;;;;;33.00;17.30;;;14.70;56.90;;;;;;5006561;28;20497;-82
2022/01/16 09:59:34;;;;;;;31.13;16.77;;;14.70;57.00;;;;;;4999854;28;20535;-82
2022/01/16 10:02:03;;;;;;;28.27;15.80;;;14.70;56.90;;;;;;4999194;28;20445;-82
2022/01/16 10:04:32;;;;;;;29.97;16.30;;;14.70;57.00;;;;;;5013537;28;20468;-81
2022/01/16 10:07:01;;;;;;;29.33;15.90;;;14.70;57.00;;;;;;5000576;28;20433;-80
2022/01/16 10:09:30;;;;;;;29.67;15.97;;;14.80;57.40;;;;;;5002416;28;20461;-80
2022/01/16 10:12:06;;;;;;;29.80;16.17;;;14.80;57.00;;;;;;5000054;28;20413;-81
2022/01/16 10:14:45;;;;;;;29.50;15.37;;;14.80;57.00;;;;;;4999347;28;20453;-82
2022/01/16 10:17:14;;;;;;;27.90;15.57;;;14.80;56.90;;;;;;4992687;28;20450;-81
2022/01/16 10:19:43;;;;;;;29.87;14.50;;;14.80;56.90;;;;;;4999106;28;20472;-80
2022/01/16 10:22:12;;;;;;;27.63;14.60;;;14.80;56.90;;;;;;5000027;28;20481;-80
2022/01/16 10:24:41;;;;;;;30.50;16.57;;;14.90;57.00;;;;;;5007155;28;20540;-80
2022/01/16 10:27:19;;;;;;;30.10;15.70;;;14.90;57.10;;;;;;5001262;28;20475;-80
2022/01/16 10:29:48;;;;;;;32.83;16.63;;;14.90;57.10;;;;;;5001725;28;20460;-80
2022/01/16 10:32:17;;;;;;;27.63;15.00;;;14.90;56.90;;;;;;5001601;28;20437;-81
2022/01/16 10:34:46;;;;;;;30.33;15.17;;;14.90;57.00;;;;;;4992860;28;20512;-81
2022/01/16 10:37:26;;;;;;;31.00;16.70;;;14.90;56.90;;;;;;4998942;28;20469;-81
2022/01/16 10:39:56;;;;;;;28.03;15.23;;;14.90;57.10;;;;;;4998800;28;20472;-82
2022/01/16 10:42:25;;;;;;;29.07;16.00;;;14.90;57.00;;;;;;4998603;28;20521;-82
2022/01/16 10:44:57;;;;;;;29.87;16.00;;;14.90;57.00;;;;;;4999162;28;20533;-81
2022/01/16 10:47:28;;;;;;;30.60;16.97;;;14.90;56.90;;;;;;4998485;28;20536;-81
2022/01/16 10:50:11;;;;;;;29.67;16.23;;;15.00;57.10;;;;;;5002504;28;20543;-81
2022/01/16 10:52:56;;;;;;;34.50;17.33;;;15.00;57.10;;;;;;5018090;28;20416;-81
2022/01/16 10:55:32;;;;;;;28.87;15.30;;;15.10;57.20;;;;;;5018088;28;20480;-80
2022/01/16 10:58:03;;;;;;;25.90;14.37;;;15.10;57.00;;;;;;5018065;28;20427;-80
2022/01/16 11:00:31;;;;;;;31.60;15.63;;;15.10;57.00;;;;;;5018045;28;20463;-80
2022/01/16 11:03:01;;;;;;;30.23;16.40;;;15.20;57.00;;;;;;5018209;28;20441;-80
2022/01/16 11:05:32;;;;;;;25.77;14.87;;;15.20;57.10;;;;;;4991377;28;20485;-80
2022/01/16 11:08:05;;;;;;;29.37;15.90;;;15.30;57.00;;;;;;4995462;28;20540;-80
2022/01/16 11:10:34;;;;;;;29.80;15.97;;;15.30;56.80;;;;;;4998953;28;20477;-80
2022/01/16 11:13:05;;;;;;;31.17;16.60;;;15.30;56.80;;;;;;4998302;28;20513;-82
2022/01/16 11:15:33;;;;;;;34.57;16.57;;;15.40;56.90;;;;;;4989983;28;20484;-83
2022/01/16 11:18:02;;;;;;;25.53;14.67;;;15.40;56.90;;;;;;5010168;28;20457;-83
2022/01/16 11:20:33;;;;;;;29.00;15.47;;;15.40;56.90;;;;;;5011097;28;20465;-82
2022/01/16 11:23:13;;;;;;;29.20;16.90;;;15.50;56.90;;;;;;5005697;28;20448;-82
2022/01/16 11:25:42;;;;;;;27.90;14.90;;;15.50;56.90;;;;;;5009810;28;20456;-82
2022/01/16 11:28:13;;;;;;;28.07;15.23;;;15.50;56.90;;;;;;5004136;28;20446;-84
2022/01/16 11:30:43;;;;;;;30.43;15.30;;;15.50;56.80;;;;;;5000977;28;20452;-83
2022/01/16 11:33:11;;;;;;;31.20;16.30;;;15.60;56.80;;;;;;4999512;28;20429;-84
2022/01/16 11:35:42;;;;;;;27.67;15.47;;;15.60;56.90;;;;;;4997234;28;20500;-83
2022/01/16 11:38:10;;;;;;;30.17;14.77;;;15.60;56.90;;;;;;4999187;28;20493;-82
2022/01/16 11:43:47;;;;;;;37.90;12.83;;;16.60;67.50;;;;;;5004450;28;20457;-83
2022/01/16 11:46:17;;;;;;;37.03;15.20;;;17.80;70.20;;;;;;4999935;28;20437;-83
2022/01/16 11:48:49;;;;;;;37.30;12.63;;;18.50;70.00;;;;;;5000833;28;20476;-83
2022/01/16 11:52:03;;;;;;;32.07;16.10;;;18.80;67.80;;;;;;5007338;28;20449;-84
2022/01/16 11:54:35;;;;;;;43.87;18.17;;;19.10;65.20;;;;;;4984633;28;20551;-80
2022/01/16 11:57:17;;;;;;;58.87;29.10;;;19.20;60.00;;;;;;4991200;28;20496;-82
2022/01/16 11:59:47;;;;;;;61.13;29.60;;;17.00;54.50;;;;;;4980407;28;20496;-80
2022/01/16 12:02:37;;;;;;;60.63;31.23;;;15.60;56.80;;;;;;4981052;28;20476;-82
2022/01/16 12:05:06;;;;;;;61.80;29.03;;;14.60;58.30;;;;;;4995158;28;20913;-82
2022/01/16 12:07:45;;;;;;;57.97;29.40;;;14.30;57.50;;;;;;4997216;28;20437;-81
2022/01/16 12:10:14;;;;;;;75.97;32.70;;;13.50;60.10;;;;;;4998622;28;20460;-83
2022/01/16 12:12:42;;;;;;;139.43;82.73;;;13.60;62.50;;;;;;5001211;28;20476;-83
2022/01/16 12:15:18;;;;;;;85.03;41.57;;;14.00;60.80;;;;;;4999027;28;20567;-82
2022/01/16 12:17:48;;;;;;;69.10;36.93;;;14.20;60.00;;;;;;5000861;28;20437;-82
2022/01/16 12:20:25;;;;;;;71.90;36.35;;;14.30;60.30;;;;;;5000793;28;20458;-84
2022/01/16 12:22:55;;;;;;;68.43;32.30;;;14.30;60.30;;;;;;5009507;28;20188;-84
2022/01/16 12:25:43;;;;;;;71.27;32.47;;;14.80;64.30;;;;;;5009964;28;20500;-83
2022/01/16 12:28:15;;;;;;;66.40;31.95;;;15.60;63.60;;;;;;5010110;28;20447;-84
2022/01/16 12:30:50;;;;;;;94.47;37.93;;;16.20;62.10;;;;;;5006130;28;20224;-84
2022/01/16 12:33:26;;;;;;;82.63;36.00;;;16.60;62.70;;;;;;5006684;28;20463;-85
2022/01/16 12:36:13;;;;;;;73.43;35.08;;;17.00;62.50;;;;;;5006528;28;20446;-81
2022/01/16 12:38:54;;;;;;;83.33;32.47;;;17.30;62.00;;;;;;5002843;28;20223;-82
2022/01/16 12:41:27;;;;;;;67.40;31.83;;;17.50;62.90;;;;;;5009686;28;20460;-83
2022/01/16 12:43:57;;;;;;;66.03;28.33;;;17.60;63.10;;;;;;5006858;28;20422;-84
2022/01/16 12:46:29;;;;;;;58.40;24.37;;;17.80;62.80;;;;;;5009003;28;20586;-83
2022/01/16 12:48:57;;;;;;;33.03;19.07;;;18.00;63.70;;;;;;5010192;28;20433;-82
2022/01/16 12:51:27;;;;;;;39.33;19.77;;;18.40;60.20;;;;;;5011676;28;20449;-81
2022/01/16 12:53:55;;;;;;;40.47;20.87;;;18.30;58.00;;;;;;5011309;28;20440;-84
2022/01/16 12:56:28;;;;;;;53.10;22.40;;;18.20;57.00;;;;;;5010647;28;20469;-83
2022/01/16 12:58:58;;;;;;;46.30;22.13;;;18.10;56.90;;;;;;5013052;28;20433;-81
2022/01/16 13:01:32;;;;;;;41.20;21.40;;;18.00;57.50;;;;;;5014517;28;20433;-81
2022/01/16 13:04:00;;;;;;;56.13;21.67;;;17.90;57.00;;;;;;5013321;28;20513;-82
2022/01/16 13:06:29;;;;;;;38.73;19.87;;;17.80;57.10;;;;;;5013855;28;20467;-81
2022/01/16 13:09:03;;;;;;;41.90;20.33;;;17.70;57.30;;;;;;5014455;28;20441;-81
2022/01/16 13:11:33;;;;;;;37.33;19.53;;;17.60;57.20;;;;;;5014470;28;20445;-84
2022/01/16 13:14:02;;;;;;;36.80;19.87;;;17.50;57.40;;;;;;5014567;28;20472;-83
2022/01/16 13:16:32;;;;;;;37.97;19.63;;;17.50;57.30;;;;;;5014408;28;20500;-81
2022/01/16 13:19:08;;;;;;;39.37;19.10;;;17.40;57.30;;;;;;5011453;28;20452;-83